createdAt,value
2022-09-10T00:00:39.046Z,100803.19
2022-09-10T00:03:05.351Z,100801.63
2022-09-10T00:05:31.665Z,100803.44
2022-09-10T00:07:57.991Z,100803.59
2022-09-10T00:10:24.337Z,100802.00
2022-09-10T00:12:50.647Z,100795.84
2022-09-10T00:15:16.944Z,100793.28
2022-09-10T00:17:43.369Z,100796.13
2022-09-10T00:20:09.678Z,100798.13
2022-09-10T00:22:38.306Z,100802.84
2022-09-10T00:25:08.206Z,100800.41
2022-09-10T00:27:34.753Z,100804.94
2022-09-10T00:30:01.029Z,100795.09
2022-09-10T00:32:27.238Z,100797.06
2022-09-10T00:34:53.485Z,100799.06
2022-09-10T00:37:19.769Z,100800.06
2022-09-10T00:39:46.254Z,100793.03
2022-09-10T00:42:12.751Z,100795.03
2022-09-10T00:44:39.033Z,100791.44
2022-09-10T00:47:05.241Z,100790.75
2022-09-10T00:49:31.454Z,100789.00
2022-09-10T00:51:57.640Z,100789.88
2022-09-10T00:54:23.848Z,100788.16
2022-09-10T00:56:50.105Z,100786.44
2022-09-10T00:59:16.382Z,100789.28
2022-09-10T01:01:42.842Z,100788.56
2022-09-10T01:04:09.137Z,100800.41
2022-09-10T01:06:35.476Z,100795.13
2022-09-10T01:09:01.719Z,100794.28
2022-09-10T01:11:27.999Z,100793.53
2022-09-10T01:13:54.211Z,100792.81
2022-09-10T01:16:20.485Z,100791.94
2022-09-10T01:18:46.717Z,100791.22
2022-09-10T01:21:12.976Z,100795.91
2022-09-10T01:23:39.197Z,100795.16
2022-09-10T01:26:05.450Z,100788.88
2022-09-10T01:28:31.742Z,100781.72
2022-09-10T01:30:58.095Z,100787.28
2022-09-10T01:33:24.300Z,100786.56
2022-09-10T01:35:50.547Z,100793.84
2022-09-10T01:38:16.828Z,100790.28
2022-09-10T01:40:43.064Z,100791.41
2022-09-10T01:43:09.321Z,100793.25
2022-09-10T01:45:35.596Z,100799.69
2022-09-10T01:48:01.835Z,100795.50
2022-09-10T01:50:28.283Z,100797.50
2022-09-10T01:52:54.582Z,100789.38
2022-09-10T01:55:20.922Z,100790.22
2022-09-10T01:57:47.162Z,100783.94
2022-09-10T02:00:13.435Z,100791.19
2022-09-10T02:02:39.641Z,100792.06
2022-09-10T02:05:05.854Z,100792.19
2022-09-10T02:07:32.122Z,100789.47
2022-09-10T02:09:58.333Z,100797.75
2022-09-10T02:12:24.748Z,100794.31
2022-09-10T02:14:51.194Z,100789.88
2022-09-10T02:17:17.526Z,100793.69
2022-09-10T02:19:43.793Z,100789.41
2022-09-10T02:22:10.040Z,100799.53
2022-09-10T02:24:36.318Z,100806.06
2022-09-10T02:27:02.923Z,100803.50
2022-09-10T02:29:29.183Z,100809.81
2022-09-10T02:31:55.589Z,100806.34
2022-09-10T02:34:21.839Z,100807.50
2022-09-10T02:36:48.077Z,100803.06
2022-09-10T02:39:14.339Z,100810.31
2022-09-10T02:41:40.581Z,100812.16
2022-09-10T02:44:06.807Z,100814.03
2022-09-10T02:46:33.015Z,100815.16
2022-09-10T02:48:59.297Z,100811.59
2022-09-10T02:51:25.539Z,100822.44
2022-09-10T02:53:51.930Z,100818.00
2022-09-10T02:56:18.185Z,100818.97
2022-09-10T02:58:44.443Z,100817.25
2022-09-10T03:01:10.747Z,100815.53
2022-09-10T03:03:37.024Z,100812.97
2022-09-10T03:06:03.274Z,100813.94
2022-09-10T03:08:29.535Z,100808.03
2022-09-10T03:10:55.872Z,100811.91
2022-09-10T03:13:22.084Z,100805.72
2022-09-10T03:15:48.270Z,100811.41
2022-09-10T03:18:14.469Z,100813.28
2022-09-10T03:20:40.718Z,100809.69
2022-09-10T03:23:07.010Z,100808.69
2022-09-10T03:25:33.350Z,100811.81
2022-09-10T03:27:59.639Z,100808.72
2022-09-10T03:30:25.828Z,100812.81
2022-09-10T03:32:52.093Z,100807.78
2022-09-10T03:35:18.281Z,100810.75
2022-09-10T03:37:44.629Z,100804.13
2022-09-10T03:40:10.886Z,100806.22
2022-09-10T03:42:37.178Z,100804.59
2022-09-10T03:45:03.375Z,100799.31
2022-09-10T03:47:29.632Z,100798.59
2022-09-10T03:49:55.812Z,100798.59
2022-09-10T03:52:22.031Z,100802.41
2022-09-10T03:54:48.315Z,100803.41
2022-09-10T03:57:14.574Z,100801.56
2022-09-10T03:59:40.768Z,100802.41
2022-09-10T04:02:07.021Z,100802.41
2022-09-10T04:04:33.465Z,100800.81
2022-09-10T04:06:59.767Z,100804.53
2022-09-10T04:09:26.015Z,100799.09
2022-09-10T04:11:52.273Z,100807.25
2022-09-10T04:14:18.462Z,100808.22
2022-09-10T04:16:44.696Z,100802.94
2022-09-10T04:19:10.933Z,100809.47
2022-09-10T04:21:37.135Z,100806.03
2022-09-10T04:24:03.340Z,100802.69
2022-09-10T04:26:29.542Z,100804.94
2022-09-10T04:28:55.922Z,100805.16
2022-09-10T04:31:22.164Z,100816.13
2022-09-10T04:33:48.383Z,100819.84
2022-09-10T04:36:14.572Z,100812.56
2022-09-10T04:38:40.859Z,100807.00
2022-09-10T04:41:07.086Z,100820.44
2022-09-10T04:43:33.346Z,100824.00
2022-09-10T04:45:59.555Z,100821.19
2022-09-10T04:48:25.773Z,100822.03
2022-09-10T04:51:14.865Z,100823.00
2022-09-10T04:53:38.151Z,100818.47
2022-09-10T04:56:04.348Z,100826.69
2022-09-10T04:58:32.456Z,100818.34
2022-09-10T05:01:01.624Z,100818.34
2022-09-10T05:03:27.859Z,100824.63
2022-09-10T05:05:54.050Z,100821.78
2022-09-10T05:08:20.254Z,100827.19
2022-09-10T05:10:46.466Z,100824.75
2022-09-10T05:13:12.733Z,100821.91
2022-09-10T05:15:38.939Z,100823.53
2022-09-10T05:18:05.145Z,100829.66
2022-09-10T05:20:31.428Z,100831.53
2022-09-10T05:22:57.638Z,100834.94
2022-09-10T05:25:23.829Z,100838.41
2022-09-10T05:27:50.052Z,100822.03
2022-09-10T05:30:16.240Z,100832.63
2022-09-10T05:32:42.458Z,100831.50
2022-09-10T05:35:08.722Z,100835.69
2022-09-10T05:37:35.024Z,100827.44
2022-09-10T05:40:01.270Z,100825.56
2022-09-10T05:42:27.513Z,100819.91
2022-09-10T05:44:53.764Z,100819.03
2022-09-10T05:47:19.974Z,100829.88
2022-09-10T05:49:46.221Z,100826.19
2022-09-10T05:52:12.624Z,100826.78
2022-09-10T05:54:38.850Z,100831.81
2022-09-10T05:57:05.056Z,100825.91
2022-09-10T05:59:31.293Z,100831.09
2022-09-10T06:01:57.598Z,100824.50
2022-09-10T06:04:23.896Z,100827.97
2022-09-10T06:06:50.111Z,100824.16
2022-09-10T06:09:16.384Z,100834.63
2022-09-10T06:11:42.655Z,100841.25
2022-09-10T06:14:08.897Z,100836.19
2022-09-10T06:16:35.194Z,100836.75
2022-09-10T06:19:01.406Z,100838.94
2022-09-10T06:21:28.379Z,100851.00
2022-09-10T06:23:54.788Z,100845.09
2022-09-10T06:26:21.150Z,100843.97
2022-09-10T06:28:47.449Z,100840.72
2022-09-10T06:31:13.693Z,100846.72
2022-09-10T06:33:39.901Z,100851.78
2022-09-10T06:36:06.118Z,100846.81
2022-09-10T06:38:32.448Z,100849.13
2022-09-10T06:40:58.835Z,100842.16
2022-09-10T06:43:25.048Z,100844.41
2022-09-10T06:45:51.305Z,100842.75
2022-09-10T06:48:38.660Z,100843.06
2022-09-10T06:51:03.944Z,100852.16
2022-09-10T06:53:30.291Z,100848.88
2022-09-10T06:55:56.594Z,100839.19
2022-09-10T06:58:22.955Z,100836.81
2022-09-10T07:00:49.250Z,100851.56
2022-09-10T07:03:15.595Z,100846.56
2022-09-10T07:05:41.966Z,100845.03
2022-09-10T07:08:08.292Z,100838.44
2022-09-10T07:10:34.558Z,100841.50
2022-09-10T07:13:00.813Z,100852.38
2022-09-10T07:15:27.098Z,100832.94
2022-09-10T07:17:53.603Z,100832.25
2022-09-10T07:20:19.832Z,100830.25
2022-09-10T07:22:46.078Z,100831.97
2022-09-10T07:25:12.332Z,100832.00
2022-09-10T07:27:38.529Z,100835.78
2022-09-10T07:30:04.746Z,100832.47
2022-09-10T07:32:30.945Z,100840.94
2022-09-10T07:34:57.200Z,100837.63
2022-09-10T07:37:23.627Z,100833.03
2022-09-10T07:39:50.070Z,100835.78
2022-09-10T07:42:16.316Z,100837.91
2022-09-10T07:44:42.514Z,100841.78
2022-09-10T07:47:08.743Z,100834.19
2022-09-10T07:49:34.973Z,100841.47
2022-09-10T07:52:01.251Z,100843.50
2022-09-10T07:54:27.572Z,100839.88
2022-09-10T07:56:53.871Z,100844.47
2022-09-10T07:59:20.214Z,100832.25
2022-09-10T08:01:46.468Z,100841.81
2022-09-10T08:04:12.796Z,100843.53
2022-09-10T08:06:39.083Z,100836.22
2022-09-10T08:09:05.360Z,100841.31
2022-09-10T08:11:31.689Z,100833.00
2022-09-10T08:13:58.090Z,100842.28
2022-09-10T08:16:24.274Z,100840.97
2022-09-10T08:18:51.402Z,100834.16
2022-09-10T08:21:17.650Z,100841.56
2022-09-10T08:23:43.826Z,100845.03
2022-09-10T08:26:10.027Z,100837.94
2022-09-10T08:28:36.524Z,100837.06
2022-09-10T08:31:02.919Z,100837.63
2022-09-10T08:33:29.195Z,100829.13
2022-09-10T08:35:55.450Z,100845.03
2022-09-10T08:38:21.666Z,100841.41
2022-09-10T08:40:47.911Z,100842.56
2022-09-10T08:43:14.078Z,100839.69
2022-09-10T08:45:40.333Z,100844.44
2022-09-10T08:48:06.554Z,100843.53
2022-09-10T08:50:32.809Z,100846.66
2022-09-10T08:52:59.125Z,100841.91
2022-09-10T08:55:25.551Z,100840.97
2022-09-10T08:57:51.827Z,100837.44
2022-09-10T09:00:18.248Z,100832.75
2022-09-10T09:02:49.345Z,100835.47
2022-09-10T09:05:15.884Z,100832.72
2022-09-10T09:07:42.125Z,100828.25
2022-09-10T09:10:08.402Z,100830.09
2022-09-10T09:12:34.622Z,100830.72
2022-09-10T09:15:00.858Z,100831.75
2022-09-10T09:17:27.066Z,100837.59
2022-09-10T09:19:53.294Z,100840.16
2022-09-10T09:22:19.531Z,100829.56
2022-09-10T09:24:45.769Z,100838.63
2022-09-10T09:27:11.959Z,100833.50
2022-09-10T09:29:38.145Z,100825.56
2022-09-10T09:32:04.353Z,100833.09
2022-09-10T09:34:30.602Z,100826.97
2022-09-10T09:36:56.822Z,100829.22
2022-09-10T09:39:25.641Z,100827.25
2022-09-10T09:41:52.040Z,100827.25
2022-09-10T09:44:18.244Z,100825.88
2022-09-10T09:46:44.501Z,100826.75
2022-09-10T09:49:10.705Z,100822.97
2022-09-10T09:51:36.936Z,100830.72
2022-09-10T09:54:36.539Z,100826.06
2022-09-10T09:56:49.388Z,100819.13
2022-09-10T09:59:15.616Z,100819.66
2022-09-10T10:01:41.875Z,100812.09
2022-09-10T10:04:08.334Z,100812.97
2022-09-10T10:06:34.515Z,100818.13
2022-09-10T10:09:00.791Z,100815.25
2022-09-10T10:11:27.030Z,100809.97
2022-09-10T10:13:53.239Z,100817.16
2022-09-10T10:16:19.423Z,100808.75
2022-09-10T10:18:45.649Z,100795.75
2022-09-10T10:21:11.888Z,100804.47
2022-09-10T10:23:38.095Z,100796.94
2022-09-10T10:26:04.311Z,100803.47
2022-09-10T10:28:30.504Z,100805.66
2022-09-10T10:30:56.744Z,100804.63
2022-09-10T10:33:23.095Z,100806.19
2022-09-10T10:35:49.308Z,100809.97
2022-09-10T10:38:15.565Z,100802.78
2022-09-10T10:40:41.846Z,100802.94
2022-09-10T10:43:08.360Z,100810.63
2022-09-10T10:45:34.662Z,100804.28
2022-09-10T10:48:01.227Z,100808.72
2022-09-10T10:50:27.481Z,100809.41
2022-09-10T10:52:53.771Z,100797.56
2022-09-10T10:55:20.036Z,100796.88
2022-09-10T10:57:46.461Z,100797.47
2022-09-10T11:00:12.760Z,100798.31
2022-09-10T11:02:39.302Z,100792.75
2022-09-10T11:05:05.708Z,100801.25
2022-09-10T11:07:32.231Z,100791.44
2022-09-10T11:09:58.573Z,100793.44
2022-09-10T11:12:24.991Z,100791.91
2022-09-10T11:14:51.393Z,100794.34
2022-09-10T11:17:17.580Z,100796.19
2022-09-10T11:19:43.958Z,100791.03
2022-09-10T11:22:10.546Z,100785.16
2022-09-10T11:24:36.986Z,100791.06
2022-09-10T11:27:03.290Z,100791.50
2022-09-10T11:29:29.744Z,100787.88
2022-09-10T11:31:56.005Z,100790.75
2022-09-10T11:34:22.553Z,100779.97
2022-09-10T11:36:48.924Z,100790.44
2022-09-10T11:39:15.358Z,100784.78
2022-09-10T11:41:41.582Z,100789.66
2022-09-10T11:44:07.820Z,100777.25
2022-09-10T11:46:34.282Z,100768.50
2022-09-10T11:49:00.610Z,100780.56
2022-09-10T11:51:26.867Z,100775.00
2022-09-10T11:53:53.223Z,100768.56
2022-09-10T11:56:19.429Z,100776.88
2022-09-10T11:58:45.714Z,100767.53
2022-09-10T12:01:12.166Z,100764.06
2022-09-10T12:03:38.679Z,100766.66
2022-09-10T12:06:04.958Z,100754.69
2022-09-10T12:08:31.231Z,100754.28
2022-09-10T12:10:57.489Z,100751.81
2022-09-10T12:13:23.776Z,100746.97
2022-09-10T12:15:50.132Z,100745.38
2022-09-10T12:18:16.427Z,100749.34
2022-09-10T12:20:42.737Z,100745.91
2022-09-10T12:23:09.035Z,100752.94
2022-09-10T12:25:35.409Z,100739.78
2022-09-10T12:28:01.612Z,100745.25
2022-09-10T12:30:27.894Z,100742.50
2022-09-10T12:32:54.181Z,100747.81
2022-09-10T12:35:20.444Z,100746.59
2022-09-10T12:37:46.687Z,100749.22
2022-09-10T12:40:13.383Z,100756.38
2022-09-10T12:42:39.708Z,100754.84
2022-09-10T12:45:06.066Z,100746.19
2022-09-10T12:47:32.282Z,100740.75
2022-09-10T12:49:58.511Z,100744.38
2022-09-10T12:52:24.709Z,100741.72
2022-09-10T12:54:50.936Z,100743.06
2022-09-10T12:57:17.193Z,100735.81
2022-09-10T12:59:43.474Z,100742.28
2022-09-10T13:02:09.809Z,100727.38
2022-09-10T13:04:36.118Z,100732.31
2022-09-10T13:07:02.332Z,100728.00
2022-09-10T13:09:28.767Z,100736.16
2022-09-10T13:11:55.147Z,100731.47
2022-09-10T13:14:21.375Z,100730.63
2022-09-10T13:16:47.605Z,100731.34
2022-09-10T13:19:13.903Z,100717.31
2022-09-10T13:21:40.102Z,100722.47
2022-09-10T13:24:06.394Z,100720.94
2022-09-10T13:26:32.686Z,100719.00
2022-09-10T13:28:58.974Z,100720.28
2022-09-10T13:31:25.404Z,100716.84
2022-09-10T13:33:51.658Z,100719.97
2022-09-10T13:36:17.885Z,100721.72
2022-09-10T13:38:44.168Z,100716.78
2022-09-10T13:41:10.603Z,100708.78
2022-09-10T13:43:36.920Z,100712.53
2022-09-10T13:46:03.359Z,100710.56
2022-09-10T13:48:29.647Z,100716.56
2022-09-10T13:50:55.845Z,100715.06
2022-09-10T13:53:22.119Z,100721.50
2022-09-10T13:55:48.371Z,100717.31
2022-09-10T13:58:14.700Z,100718.84
2022-09-10T14:00:40.934Z,100717.50
2022-09-10T14:03:07.236Z,100719.31
2022-09-10T14:05:33.493Z,100715.88
2022-09-10T14:08:00.688Z,100716.94
2022-09-10T14:10:27.174Z,100723.41
2022-09-10T14:12:53.461Z,100722.41
2022-09-10T14:15:19.694Z,100720.03
2022-09-10T14:17:45.961Z,100720.34
2022-09-10T14:20:12.157Z,100723.13
2022-09-10T14:22:38.370Z,100728.78
2022-09-10T14:25:04.593Z,100731.72
2022-09-10T14:27:30.868Z,100729.50
2022-09-10T14:29:57.060Z,100730.50
2022-09-10T14:32:23.277Z,100729.50
2022-09-10T14:34:49.482Z,100728.25
2022-09-10T14:37:15.694Z,100739.72
2022-09-10T14:39:42.024Z,100740.06
2022-09-10T14:42:09.048Z,100734.91
2022-09-10T14:44:35.297Z,100732.63
2022-09-10T14:47:01.574Z,100738.41
2022-09-10T14:49:27.880Z,100745.50
2022-09-10T14:51:54.142Z,100750.19
2022-09-10T14:54:20.413Z,100739.25
2022-09-10T14:56:46.687Z,100744.00
2022-09-10T14:59:12.963Z,100731.91
2022-09-10T15:01:39.198Z,100729.50
2022-09-10T15:04:05.424Z,100724.03
2022-09-10T15:06:31.645Z,100723.34
2022-09-10T15:08:57.858Z,100725.91
2022-09-10T15:11:24.084Z,100715.44
2022-09-10T15:13:50.366Z,100719.41
2022-09-10T15:16:16.579Z,100727.88
2022-09-10T15:18:42.853Z,100731.16
2022-09-10T15:21:09.174Z,100735.53
2022-09-10T15:23:35.361Z,100743.56
2022-09-10T15:26:01.570Z,100742.91
2022-09-10T15:28:27.797Z,100745.38
2022-09-10T15:30:54.065Z,100737.06
2022-09-10T15:33:20.376Z,100736.97
2022-09-10T15:35:46.585Z,100732.06
2022-09-10T15:38:12.817Z,100730.78
2022-09-10T15:40:39.067Z,100721.97
2022-09-10T15:43:05.291Z,100725.91
2022-09-10T15:45:31.559Z,100715.22
2022-09-10T15:47:57.891Z,100723.09
2022-09-10T15:50:24.128Z,100724.31
2022-09-10T15:52:50.341Z,100725.22
2022-09-10T15:55:16.559Z,100735.59
2022-09-10T15:57:42.803Z,100739.63
2022-09-10T16:00:09.003Z,100738.31
2022-09-10T16:02:35.309Z,100733.03
2022-09-10T16:05:01.603Z,100743.53
2022-09-10T16:07:27.812Z,100745.47
2022-09-10T16:09:54.045Z,100735.41
2022-09-10T16:12:20.302Z,100738.09
2022-09-10T16:14:46.527Z,100749.00
2022-09-10T16:17:12.807Z,100746.38
2022-09-10T16:19:39.000Z,100745.59
2022-09-10T16:22:05.233Z,100746.63
2022-09-10T16:24:31.433Z,100743.41
2022-09-10T16:26:57.647Z,100749.91
2022-09-10T16:29:23.844Z,100752.44
2022-09-10T16:31:50.145Z,100745.88
2022-09-10T16:34:16.379Z,100745.88
2022-09-10T16:36:42.593Z,100748.91
2022-09-10T16:39:08.815Z,100753.38
2022-09-10T16:41:35.030Z,100752.75
2022-09-10T16:44:01.310Z,100755.56
2022-09-10T16:46:27.638Z,100761.94
2022-09-10T16:48:53.873Z,100765.97
2022-09-10T16:51:20.078Z,100771.22
2022-09-10T16:53:46.296Z,100770.28
2022-09-10T16:56:12.515Z,100771.50
2022-09-10T16:58:39.007Z,100767.56
2022-09-10T17:01:05.369Z,100776.16
2022-09-10T17:03:31.611Z,100771.88
2022-09-10T17:05:57.837Z,100771.06
2022-09-10T17:08:24.106Z,100765.59
2022-09-10T17:10:50.297Z,100773.47
2022-09-10T17:13:16.622Z,100776.91
2022-09-10T17:15:42.847Z,100772.44
2022-09-10T17:18:09.142Z,100778.28
2022-09-10T17:20:35.349Z,100773.97
2022-09-10T17:23:01.587Z,100774.66
2022-09-10T17:25:27.825Z,100778.56
2022-09-10T17:27:54.039Z,100773.22
2022-09-10T17:30:20.225Z,100784.19
2022-09-10T17:32:46.477Z,100774.03
2022-09-10T17:35:12.681Z,100774.06
2022-09-10T17:37:38.930Z,100783.59
2022-09-10T17:40:05.169Z,100792.28
2022-09-10T17:42:31.467Z,100788.66
2022-09-10T17:44:57.686Z,100792.06
2022-09-10T17:47:23.944Z,100801.09
2022-09-10T17:49:50.148Z,100809.91
2022-09-10T17:52:16.419Z,100805.09
2022-09-10T17:54:42.605Z,100812.06
2022-09-10T17:57:08.832Z,100818.38
2022-09-10T17:59:35.037Z,100820.72
2022-09-10T18:02:01.266Z,100824.09
2022-09-10T18:04:27.519Z,100822.03
2022-09-10T18:06:53.799Z,100825.22
2022-09-10T18:09:20.270Z,100821.09
2022-09-10T18:11:46.774Z,100822.59
2022-09-10T18:14:13.038Z,100822.91
2022-09-10T18:16:39.407Z,100829.72
2022-09-10T18:19:08.154Z,100834.78
2022-09-10T18:21:36.586Z,100839.69
2022-09-10T18:24:02.807Z,100849.41
2022-09-10T18:26:29.009Z,100846.13
2022-09-10T18:28:55.273Z,100858.38
2022-09-10T18:31:21.525Z,100853.53
2022-09-10T18:33:47.781Z,100848.41
2022-09-10T18:36:14.049Z,100843.09
2022-09-10T18:38:40.405Z,100842.22
2022-09-10T18:41:07.213Z,100841.38
2022-09-10T18:43:33.680Z,100838.63
2022-09-10T18:46:00.029Z,100845.25
2022-09-10T18:48:26.313Z,100834.78
2022-09-10T18:50:52.676Z,100838.50
2022-09-10T18:53:18.933Z,100831.50
2022-09-10T18:55:45.160Z,100835.25
2022-09-10T18:58:11.363Z,100835.25
2022-09-10T19:00:37.647Z,100836.41
2022-09-10T19:03:03.923Z,100825.81
2022-09-10T19:05:30.251Z,100833.13
2022-09-10T19:07:56.506Z,100822.53
2022-09-10T19:10:22.795Z,100825.41
2022-09-10T19:12:49.063Z,100824.16
2022-09-10T19:15:15.355Z,100819.47
2022-09-10T19:17:41.554Z,100818.22
2022-09-10T19:20:07.779Z,100825.84
2022-09-10T19:22:34.030Z,100816.13
2022-09-10T19:25:07.410Z,100828.88
2022-09-10T19:27:33.654Z,100823.59
2022-09-10T19:29:59.900Z,100824.59
2022-09-10T19:32:26.082Z,100820.31
2022-09-10T19:34:52.390Z,100822.31
2022-09-10T19:37:18.604Z,100822.47
2022-09-10T19:39:44.856Z,100822.78
2022-09-10T19:42:11.168Z,100818.50
2022-09-10T19:44:37.450Z,100821.38
2022-09-10T19:47:03.675Z,100829.88
2022-09-10T19:49:29.864Z,100823.84
2022-09-10T19:51:56.081Z,100824.88
2022-09-10T19:54:22.273Z,100824.00
2022-09-10T19:56:48.496Z,100829.75
2022-09-10T19:59:14.741Z,100834.81
2022-09-10T20:01:41.105Z,100839.00
2022-09-10T20:04:07.377Z,100837.91
2022-09-10T20:06:33.671Z,100841.19
2022-09-10T20:08:59.877Z,100841.50
2022-09-10T20:11:26.106Z,100844.38
2022-09-10T20:13:52.312Z,100848.25
2022-09-10T20:16:18.527Z,100849.44
2022-09-10T20:18:44.830Z,100853.16
2022-09-10T20:21:11.013Z,100846.00
2022-09-10T20:23:37.208Z,100857.03
2022-09-10T20:26:03.425Z,100860.03
2022-09-10T20:28:29.618Z,100858.47
2022-09-10T20:30:55.864Z,100855.03
2022-09-10T20:33:22.168Z,100857.03
2022-09-10T20:35:48.420Z,100860.78
2022-09-10T20:38:14.628Z,100861.06
2022-09-10T20:40:40.855Z,100866.81
2022-09-10T20:43:07.166Z,100862.50
2022-09-10T20:45:33.561Z,100859.06
2022-09-10T20:47:59.836Z,100858.53
2022-09-10T20:50:26.109Z,100859.53
2022-09-10T20:52:52.388Z,100860.66
2022-09-10T20:55:18.838Z,100850.06
2022-09-10T20:57:45.112Z,100852.94
2022-09-10T21:00:11.361Z,100854.94
2022-09-10T21:02:37.639Z,100854.25
2022-09-10T21:05:03.948Z,100854.53
2022-09-10T21:07:30.239Z,100855.69
2022-09-10T21:09:56.714Z,100857.97
2022-09-10T21:12:23.014Z,100864.00
2022-09-10T21:14:49.467Z,100860.13
2022-09-10T21:17:15.695Z,100862.31
2022-09-10T21:19:41.980Z,100859.00
2022-09-10T21:22:08.253Z,100859.28
2022-09-10T21:24:34.757Z,100869.59
2022-09-10T21:27:01.017Z,100865.47
2022-09-10T21:29:27.488Z,100869.19
2022-09-10T21:31:53.698Z,100863.00
2022-09-10T21:34:19.922Z,100861.44
2022-09-10T21:36:46.124Z,100867.72
2022-09-10T21:39:12.331Z,100873.31
2022-09-10T21:41:38.528Z,100871.75
2022-09-10T21:44:04.745Z,100877.47
2022-09-10T21:46:31.121Z,100877.63
2022-09-10T21:48:57.406Z,100875.19
2022-09-10T21:51:23.605Z,100876.31
2022-09-10T21:53:49.880Z,100872.00
2022-09-10T21:56:16.094Z,100876.75
2022-09-10T21:58:42.387Z,100878.03
2022-09-10T22:01:08.753Z,100885.59
2022-09-10T22:03:34.972Z,100885.88
2022-09-10T22:06:01.180Z,100878.84
2022-09-10T22:08:27.465Z,100878.97
2022-09-10T22:10:53.649Z,100890.13
2022-09-10T22:13:19.875Z,100893.00
2022-09-10T22:15:46.081Z,100889.56
2022-09-10T22:18:12.290Z,100893.28
2022-09-10T22:20:38.473Z,100896.13
2022-09-10T22:23:04.692Z,100890.38
2022-09-10T22:25:30.883Z,100891.78
2022-09-10T22:27:57.231Z,100890.19
2022-09-10T22:30:23.445Z,100887.63
2022-09-10T22:32:49.740Z,100896.06
2022-09-10T22:35:15.955Z,100896.22
2022-09-10T22:37:42.239Z,100888.03
2022-09-10T22:40:08.481Z,100895.50
2022-09-10T22:42:34.782Z,100892.03
2022-09-10T22:45:00.974Z,100895.19
2022-09-10T22:47:27.188Z,100891.00
2022-09-10T22:49:53.402Z,100897.00
2022-09-10T22:52:19.619Z,100892.81
2022-09-10T22:54:45.837Z,100897.66
2022-09-10T22:57:12.031Z,100899.53
2022-09-10T22:59:38.250Z,100895.06
2022-09-10T23:02:04.477Z,100906.09
2022-09-10T23:04:30.686Z,100907.25
2022-09-10T23:06:57.051Z,100909.50
2022-09-10T23:09:23.382Z,100908.78
2022-09-10T23:11:49.579Z,100906.31
2022-09-10T23:14:15.897Z,100911.16
2022-09-10T23:16:42.090Z,100909.44
2022-09-10T23:19:08.360Z,100912.41
2022-09-10T23:21:34.589Z,100919.72
2022-09-10T23:24:00.809Z,100920.56
2022-09-10T23:26:27.022Z,100928.88
2022-09-10T23:28:53.240Z,100923.69
2022-09-10T23:31:19.467Z,100928.25
2022-09-10T23:33:45.708Z,100926.56
2022-09-10T23:36:11.986Z,100922.09
2022-09-10T23:38:38.293Z,100928.38
2022-09-10T23:41:04.527Z,100924.97
2022-09-10T23:43:30.730Z,100923.09
2022-09-10T23:45:56.947Z,100926.81
2022-09-10T23:48:23.178Z,100926.81
2022-09-10T23:50:49.400Z,100931.50
2022-09-10T23:53:15.614Z,100931.50
2022-09-10T23:55:41.801Z,100936.81
2022-09-10T23:58:08.030Z,100930.53
